Time;durP1;ratioP1;P1;durP2;ratioP2;P2;SDS_P1;SDS_P2;PMS_P1;PMS_P2;Temp;Humidity;BMP_temperature;BMP_pressure;BME280_temperature;BME280_humidity;BME280_pressure;Samples;Min_cycle;Max_cycle;Signal;HPM_P1;HPM_P2
2022/01/09 00:04:14;;;;;;;5.03;2.90;;;6.70;99.90;;;;;;10515277;28;20039;-61
2022/01/09 00:09:16;;;;;;;4.55;3.05;;;6.60;99.90;;;;;;10528083;28;20036;-59
2022/01/09 00:14:17;;;;;;;5.13;3.13;;;6.60;99.90;;;;;;10528126;28;20056;-60
2022/01/09 00:19:18;;;;;;;4.97;3.10;;;6.60;99.90;;;;;;10519114;28;20448;-61
2022/01/09 00:24:18;;;;;;;4.00;2.90;;;6.60;99.90;;;;;;10523106;28;20462;-64
2022/01/09 00:29:19;;;;;;;4.25;3.08;;;6.60;99.90;;;;;;10527616;28;20804;-62
2022/01/09 00:34:20;;;;;;;3.67;2.88;;;6.60;99.90;;;;;;10518938;28;20029;-64
2022/01/09 00:39:21;;;;;;;3.75;2.58;;;6.60;99.90;;;;;;10503840;28;20082;-65
2022/01/09 00:44:22;;;;;;;3.75;2.70;;;6.70;99.90;;;;;;10525204;28;20077;-65
2022/01/09 00:49:23;;;;;;;4.22;2.60;;;6.70;99.90;;;;;;10527257;28;20072;-65
2022/01/09 00:54:23;;;;;;;4.97;2.70;;;6.80;99.90;;;;;;10529205;28;20050;-66
2022/01/09 00:59:24;;;;;;;3.92;2.35;;;6.70;99.90;;;;;;10528489;28;20181;-66
2022/01/09 01:04:25;;;;;;;3.10;2.25;;;6.70;99.90;;;;;;10511712;28;20406;-58
2022/01/09 01:09:30;;;;;;;3.05;2.20;;;6.70;99.90;;;;;;10517096;28;20559;-62
2022/01/09 01:14:32;;;;;;;4.15;2.50;;;6.70;99.90;;;;;;10526451;28;20056;-67
2022/01/09 01:19:33;;;;;;;3.35;2.38;;;6.70;99.90;;;;;;10528258;28;20036;-66
2022/01/09 01:24:36;;;;;;;4.25;2.38;;;6.70;99.90;;;;;;10529719;28;20021;-66
2022/01/09 01:29:37;;;;;;;3.15;2.42;;;6.70;99.90;;;;;;10517251;28;20740;-62
2022/01/09 01:34:38;;;;;;;2.90;2.10;;;6.80;99.90;;;;;;10532460;28;20071;-66
2022/01/09 01:39:39;;;;;;;3.08;2.42;;;6.70;99.90;;;;;;10528905;28;20123;-62
2022/01/09 01:44:47;;;;;;;3.03;2.10;;;6.80;99.90;;;;;;10534560;28;20031;-65
2022/01/09 01:49:48;;;;;;;2.92;2.22;;;7.00;99.90;;;;;;10530956;28;20134;-62
2022/01/09 01:54:49;;;;;;;2.40;2.00;;;6.80;99.90;;;;;;10524891;28;20024;-65
2022/01/09 01:59:50;;;;;;;3.78;2.20;;;6.80;99.90;;;;;;10534454;28;20028;-64
2022/01/09 02:04:51;;;;;;;3.67;2.33;;;6.80;99.90;;;;;;10526427;28;20031;-66
2022/01/09 02:09:52;;;;;;;2.65;2.08;;;6.80;99.90;;;;;;10527208;28;20039;-66
2022/01/09 02:14:52;;;;;;;3.13;2.35;;;6.80;99.90;;;;;;10532963;28;20059;-63
2022/01/09 02:19:54;;;;;;;3.05;2.03;;;6.80;99.90;;;;;;10524585;28;20044;-66
2022/01/09 02:24:55;;;;;;;2.55;1.90;;;6.80;99.90;;;;;;10535263;28;20024;-64
2022/01/09 02:29:56;;;;;;;2.78;2.05;;;6.80;99.90;;;;;;10536811;28;20035;-64
2022/01/09 02:34:57;;;;;;;5.03;1.70;;;6.80;99.90;;;;;;10524301;28;20028;-63
2022/01/09 02:39:58;;;;;;;2.38;1.77;;;6.80;99.90;;;;;;10526745;28;20040;-64
2022/01/09 02:44:59;;;;;;;5.15;2.03;;;6.90;99.90;;;;;;10531074;28;20043;-65
2022/01/09 02:50:26;;;;;;;2.17;1.40;;;6.90;99.90;;;;;;10532294;28;20195;-65
2022/01/09 02:55:29;;;;;;;3.38;1.60;;;6.90;99.90;;;;;;10537078;28;20452;-65
2022/01/09 03:00:38;;;;;;;2.28;1.40;;;6.90;99.90;;;;;;10530878;28;20035;-65
2022/01/09 03:05:39;;;;;;;;;;;6.90;99.90;;;;;;10520182;28;20020;-65
2022/01/09 03:10:39;;;;;;;1.92;1.20;;;6.90;99.90;;;;;;10520309;28;19923;-65
2022/01/09 03:15:44;;;;;;;3.17;1.30;;;6.90;99.90;;;;;;10529981;28;20048;-65
2022/01/09 03:20:45;;;;;;;2.95;1.67;;;6.90;99.90;;;;;;10519857;28;20028;-65
2022/01/09 03:25:45;;;;;;;4.15;1.38;;;6.90;99.90;;;;;;10535020;28;20394;-64
2022/01/09 03:30:46;;;;;;;2.75;0.95;;;7.10;99.90;;;;;;10543797;28;20038;-66
2022/01/09 03:35:47;;;;;;;3.35;1.20;;;7.00;99.90;;;;;;10518140;28;20103;-63
2022/01/09 03:40:48;;;;;;;2.75;1.38;;;7.00;99.90;;;;;;10524825;28;20447;-65
2022/01/09 03:45:48;;;;;;;5.13;1.48;;;7.00;99.90;;;;;;10530620;28;20032;-64
2022/01/09 03:50:52;;;;;;;3.58;1.17;;;7.00;99.90;;;;;;10530189;28;20044;-65
2022/01/09 03:55:54;;;;;;;4.85;1.27;;;7.00;99.90;;;;;;10529201;28;20054;-63
2022/01/09 04:00:55;;;;;;;2.25;1.35;;;7.00;99.90;;;;;;10530189;28;20028;-66
2022/01/09 04:06:00;;;;;;;6.30;1.25;;;7.00;99.90;;;;;;10525764;28;20042;-64
2022/01/09 04:11:03;;;;;;;4.32;1.13;;;7.00;99.90;;;;;;10514701;28;20040;-64
2022/01/09 04:16:04;;;;;;;3.15;0.95;;;7.00;99.90;;;;;;10528167;28;20078;-65
2022/01/09 04:21:05;;;;;;;4.40;1.20;;;7.00;99.90;;;;;;10521989;28;20390;-65
2022/01/09 04:26:05;;;;;;;6.93;1.40;;;7.00;99.90;;;;;;10525536;28;20059;-64
2022/01/09 04:31:06;;;;;;;4.47;1.40;;;7.00;99.90;;;;;;10527405;28;20028;-65
2022/01/09 04:36:07;;;;;;;5.15;1.10;;;7.00;99.90;;;;;;10527771;28;20106;-64
2022/01/09 04:41:08;;;;;;;6.07;1.00;;;7.10;99.90;;;;;;10522246;28;20020;-62
2022/01/09 04:46:10;;;;;;;5.25;1.02;;;7.10;99.90;;;;;;10526658;28;20105;-65
2022/01/09 04:51:12;;;;;;;5.95;1.20;;;7.40;99.90;;;;;;10526808;28;20043;-64
2022/01/09 04:56:13;;;;;;;5.10;0.88;;;7.10;99.90;;;;;;10527178;28;20043;-62
2022/01/09 05:01:14;;;;;;;2.53;1.15;;;7.10;99.90;;;;;;10526505;28;20440;-63
2022/01/09 05:06:15;;;;;;;4.38;1.25;;;7.10;99.90;;;;;;10505419;28;20036;-65
2022/01/09 05:11:15;;;;;;;6.80;1.05;;;7.10;99.90;;;;;;10512529;28;20024;-64
2022/01/09 05:16:16;;;;;;;2.40;0.93;;;7.10;99.90;;;;;;10526227;28;20045;-62
2022/01/09 05:21:17;;;;;;;7.38;1.05;;;7.10;99.90;;;;;;10514736;28;20427;-63
2022/01/09 05:26:18;;;;;;;8.60;1.27;;;7.20;99.90;;;;;;10529590;28;20061;-66
2022/01/09 05:31:18;;;;;;;5.57;1.02;;;7.20;99.90;;;;;;10508491;28;20024;-64
2022/01/09 05:36:19;;;;;;;3.17;0.82;;;7.10;99.90;;;;;;10525804;28;20025;-65
2022/01/09 05:41:20;;;;;;;4.10;0.98;;;7.10;99.90;;;;;;10520238;28;20517;-62
2022/01/09 05:46:21;;;;;;;2.08;0.80;;;7.10;99.90;;;;;;10525189;28;20021;-64
2022/01/09 05:51:21;;;;;;;6.25;0.88;;;7.10;99.90;;;;;;10492472;28;20028;-65
2022/01/09 05:56:22;;;;;;;2.95;0.88;;;7.10;99.90;;;;;;10526711;28;20020;-65
2022/01/09 06:01:23;;;;;;;3.90;1.48;;;7.10;99.90;;;;;;10526535;28;20020;-64
2022/01/09 06:06:24;;;;;;;4.60;0.80;;;7.80;99.90;;;;;;10524187;28;20031;-65
2022/01/09 06:11:24;;;;;;;3.65;0.98;;;7.10;99.90;;;;;;10512786;28;20024;-65
2022/01/09 06:16:25;;;;;;;3.50;0.80;;;7.10;99.90;;;;;;10527948;28;20048;-65
2022/01/09 06:21:26;;;;;;;2.05;0.80;;;7.40;99.90;;;;;;10522243;28;20028;-66
2022/01/09 06:26:27;;;;;;;2.92;0.70;;;7.10;99.90;;;;;;10537287;28;20078;-66
2022/01/09 06:31:27;;;;;;;1.95;0.75;;;7.10;99.90;;;;;;10515271;28;20024;-65
2022/01/09 06:36:28;;;;;;;4.47;1.13;;;7.10;99.90;;;;;;10533333;28;20057;-65
2022/01/09 06:41:29;;;;;;;5.95;1.10;;;7.10;99.90;;;;;;10527660;28;20065;-65
2022/01/09 06:46:30;;;;;;;3.80;0.77;;;7.10;99.90;;;;;;10532998;28;20032;-62
2022/01/09 06:51:30;;;;;;;3.28;0.85;;;7.10;99.90;;;;;;10532760;28;20390;-66
2022/01/09 06:56:31;;;;;;;5.32;0.85;;;7.10;99.90;;;;;;10532564;28;20439;-62
2022/01/09 07:01:32;;;;;;;4.03;0.70;;;7.10;99.90;;;;;;10523185;28;20031;-63
2022/01/09 07:06:35;;;;;;;4.60;0.95;;;7.10;99.90;;;;;;10515564;28;20074;-60
2022/01/09 07:11:35;;;;;;;4.38;1.20;;;7.20;99.90;;;;;;10532237;28;20199;-64
2022/01/09 07:16:36;;;;;;;3.85;0.77;;;7.20;99.90;;;;;;10522732;28;20063;-65
2022/01/09 07:21:37;;;;;;;2.50;0.68;;;7.10;99.90;;;;;;10522374;28;20115;-65
2022/01/09 07:26:38;;;;;;;4.93;0.80;;;7.30;99.90;;;;;;10534625;28;20025;-62
2022/01/09 07:31:38;;;;;;;5.40;0.77;;;7.10;99.90;;;;;;10518808;28;20028;-65
2022/01/09 07:36:39;;;;;;;3.45;0.93;;;7.10;99.90;;;;;;10517815;28;20114;-65
2022/01/09 07:41:41;;;;;;;1.50;0.80;;;7.10;99.90;;;;;;10526148;28;20410;-64
2022/01/09 07:46:42;;;;;;;3.17;0.93;;;7.10;99.90;;;;;;10530861;28;20020;-65
2022/01/09 07:51:44;;;;;;;3.08;1.42;;;7.20;99.90;;;;;;10530925;28;20024;-63
2022/01/09 07:56:45;;;;;;;4.03;1.00;;;7.10;99.90;;;;;;10531237;28;20397;-64
2022/01/09 08:01:46;;;;;;;3.00;0.70;;;7.10;99.90;;;;;;10514212;28;20047;-65
2022/01/09 08:06:46;;;;;;;2.45;0.70;;;7.20;99.90;;;;;;10517393;28;20505;-64
2022/01/09 08:11:47;;;;;;;5.93;1.10;;;7.10;99.90;;;;;;10490372;28;20044;-62
2022/01/09 08:16:48;;;;;;;2.05;0.60;;;7.10;99.90;;;;;;10486637;28;20105;-65
2022/01/09 08:21:49;;;;;;;2.45;0.80;;;7.20;99.90;;;;;;10495777;28;20113;-63
2022/01/09 08:26:49;;;;;;;2.63;0.90;;;7.10;99.90;;;;;;10528964;28;20052;-64
2022/01/09 08:31:50;;;;;;;3.20;0.55;;;7.10;99.90;;;;;;10509992;28;20077;-65
2022/01/09 08:36:51;;;;;;;5.18;0.70;;;7.10;99.90;;;;;;10529186;28;20020;-64
2022/01/09 08:41:52;;;;;;;2.78;0.95;;;7.10;99.90;;;;;;10522554;28;20501;-64
2022/01/09 08:46:52;;;;;;;3.38;1.00;;;7.20;99.90;;;;;;10528529;28;20122;-64
2022/01/09 08:51:55;;;;;;;2.65;0.77;;;7.20;99.90;;;;;;10528627;28;20020;-65
2022/01/09 08:56:56;;;;;;;3.63;0.80;;;7.20;99.90;;;;;;10504985;28;20307;-65
2022/01/09 09:01:56;;;;;;;2.30;0.73;;;7.20;99.90;;;;;;10496849;28;20165;-65
2022/01/09 09:06:57;;;;;;;4.20;0.82;;;7.20;99.90;;;;;;10492119;28;20094;-66
2022/01/09 09:11:58;;;;;;;2.85;0.82;;;7.20;99.90;;;;;;10525325;28;20033;-65
2022/01/09 09:16:59;;;;;;;4.57;1.10;;;7.20;99.90;;;;;;10527910;28;20510;-64
2022/01/09 09:21:59;;;;;;;3.90;1.15;;;7.20;99.90;;;;;;10530025;28;20079;-65
2022/01/09 09:27:00;;;;;;;2.40;0.82;;;7.20;99.90;;;;;;10530783;28;20075;-64
2022/01/09 09:32:01;;;;;;;3.08;0.80;;;7.30;99.90;;;;;;10528123;28;20112;-66
2022/01/09 09:37:02;;;;;;;4.15;0.80;;;7.20;99.90;;;;;;10528131;28;20028;-64
2022/01/09 09:42:03;;;;;;;3.15;0.60;;;7.90;99.90;;;;;;10522695;28;20024;-67
2022/01/09 09:47:06;;;;;;;4.72;0.80;;;7.30;99.90;;;;;;10517125;28;20044;-61
2022/01/09 09:52:07;;;;;;;5.75;1.27;;;7.30;99.90;;;;;;10520848;28;20120;-63
2022/01/09 09:57:08;;;;;;;8.38;1.13;;;7.40;99.90;;;;;;10494419;28;20466;-66
2022/01/09 10:02:11;;;;;;;1.92;0.63;;;7.30;99.90;;;;;;10494094;28;20047;-63
2022/01/09 10:07:22;;;;;;;3.20;1.00;;;7.40;99.90;;;;;;10507432;28;20036;-64
2022/01/09 10:12:29;;;;;;;4.10;0.93;;;7.40;99.90;;;;;;10519950;28;20024;-67
2022/01/09 10:17:31;;;;;;;4.20;0.75;;;7.10;99.90;;;;;;10520585;28;20136;-66
2022/01/09 10:22:36;;;;;;;3.22;1.40;;;7.50;99.90;;;;;;10508086;28;20024;-65
2022/01/09 10:27:38;;;;;;;3.63;0.98;;;7.50;99.90;;;;;;10517814;28;20530;-64
2022/01/09 10:32:39;;;;;;;2.47;0.80;;;7.60;99.90;;;;;;10534896;28;20036;-64
2022/01/09 10:37:43;;;;;;;3.88;0.77;;;7.70;99.90;;;;;;10535949;28;20509;-67
2022/01/09 10:42:45;;;;;;;5.32;1.00;;;7.70;99.90;;;;;;10530158;28;20012;-66
2022/01/09 10:47:47;;;;;;;2.60;0.90;;;7.70;99.80;;;;;;10513102;28;20081;-64
2022/01/09 10:52:48;;;;;;;4.97;1.00;;;7.80;99.80;;;;;;10501700;28;20029;-62
2022/01/09 10:57:48;;;;;;;5.85;1.00;;;7.80;99.80;;;;;;10508940;28;20036;-62
2022/01/09 11:02:49;;;;;;;3.78;0.88;;;7.80;99.80;;;;;;10504650;28;20025;-67
2022/01/09 11:07:50;;;;;;;5.10;0.88;;;7.80;99.90;;;;;;10500646;28;20032;-61
2022/01/09 11:12:54;;;;;;;4.80;0.82;;;7.80;99.90;;;;;;10494656;28;20039;-64
2022/01/09 11:17:59;;;;;;;7.25;1.10;;;7.80;99.90;;;;;;10498652;28;20063;-64
2022/01/09 11:23:02;;;;;;;5.00;1.13;;;7.80;99.80;;;;;;10513061;28;20020;-62
2022/01/09 11:28:23;;;;;;;4.30;0.90;;;7.80;99.80;;;;;;10521291;28;20392;-65
2022/01/09 11:33:49;;;;;;;3.03;0.88;;;7.90;99.90;;;;;;10515360;28;20044;-63
2022/01/09 11:39:23;;;;;;;4.05;1.05;;;7.90;99.80;;;;;;10486809;28;20114;-65
2022/01/09 11:44:31;;;;;;;2.80;1.10;;;7.90;99.80;;;;;;10489139;28;20032;-70
2022/01/09 11:49:59;;;;;;;3.63;0.98;;;7.90;99.80;;;;;;10508183;28;20043;-62
2022/01/09 11:55:04;;;;;;;4.63;0.90;;;8.00;99.80;;;;;;10486745;28;20040;-62
2022/01/09 12:00:08;;;;;;;2.75;0.88;;;8.00;99.80;;;;;;10528623;28;20020;-64
2022/01/09 12:05:09;;;;;;;2.95;1.40;;;8.10;99.80;;;;;;10518583;28;20032;-65
2022/01/09 12:10:32;;;;;;;2.17;0.80;;;8.20;99.70;;;;;;10514760;28;20036;-65
2022/01/09 12:15:43;;;;;;;3.83;0.80;;;8.20;99.70;;;;;;10498797;28;20506;-66
2022/01/09 12:20:43;;;;;;;7.55;1.30;;;8.30;99.70;;;;;;10507220;28;20044;-65
2022/01/09 12:25:45;;;;;;;4.25;1.17;;;8.30;99.70;;;;;;10526703;28;20115;-66
2022/01/09 12:30:55;;;;;;;5.68;1.20;;;8.30;99.70;;;;;;10520804;28;20036;-65
2022/01/09 12:35:59;;;;;;;2.88;1.00;;;8.30;99.70;;;;;;10527967;28;20517;-64
2022/01/09 12:41:03;;;;;;;3.70;1.08;;;8.60;99.70;;;;;;10514177;28;20019;-68
2022/01/09 12:46:09;;;;;;;4.28;1.20;;;8.40;99.90;;;;;;10527979;28;20613;-65
2022/01/09 12:51:13;;;;;;;3.22;0.90;;;8.30;99.60;;;;;;10527448;28;20573;-65
2022/01/09 12:56:18;;;;;;;3.72;1.23;;;8.40;99.60;;;;;;10527289;28;20024;-63
2022/01/09 13:01:28;;;;;;;4.10;1.17;;;8.40;99.60;;;;;;10523323;28;20036;-64
2022/01/09 13:06:31;;;;;;;4.85;1.23;;;8.50;99.60;;;;;;10499788;28;20044;-64
2022/01/09 13:11:32;;;;;;;9.88;1.60;;;8.50;99.50;;;;;;10511419;28;20036;-66
2022/01/09 13:16:35;;;;;;;3.50;1.45;;;8.50;99.50;;;;;;10486637;28;20149;-64
2022/01/09 13:21:39;;;;;;;11.35;1.45;;;8.50;99.50;;;;;;10507641;28;20024;-63
2022/01/09 13:26:57;;;;;;;3.38;1.00;;;8.50;99.60;;;;;;10515065;28;20430;-62
2022/01/09 13:32:01;;;;;;;6.57;1.42;;;8.50;99.80;;;;;;10524918;28;20028;-63
2022/01/09 13:37:08;;;;;;;7.82;1.38;;;8.50;99.70;;;;;;10529811;28;20493;-70
2022/01/09 13:42:10;;;;;;;6.05;1.23;;;8.40;99.70;;;;;;10530103;28;20067;-70
2022/01/09 13:47:12;;;;;;;9.70;1.70;;;8.40;99.90;;;;;;10534984;28;20138;-68
2022/01/09 13:52:18;;;;;;;5.55;1.70;;;8.40;99.90;;;;;;10529956;28;20086;-67
2022/01/09 13:57:25;;;;;;;7.25;1.58;;;8.50;99.90;;;;;;10528401;28;20062;-63
2022/01/09 14:02:36;;;;;;;6.00;1.88;;;8.40;99.90;;;;;;10513700;28;20103;-62
2022/01/09 14:07:38;;;;;;;4.00;1.60;;;8.40;99.90;;;;;;10511783;28;20036;-61
2022/01/09 14:12:38;;;;;;;6.50;1.70;;;8.40;99.90;;;;;;10533752;28;20020;-67
2022/01/09 14:17:44;;;;;;;6.15;1.60;;;8.40;99.90;;;;;;10534383;28;20048;-68
2022/01/09 14:22:53;;;;;;;7.68;1.50;;;8.40;99.90;;;;;;10539717;28;20028;-70
2022/01/09 14:27:55;;;;;;;7.63;1.75;;;8.50;99.90;;;;;;10522887;28;20081;-70
2022/01/09 14:33:12;;;;;;;5.50;1.58;;;8.50;99.90;;;;;;10525606;28;20027;-67
2022/01/09 14:38:19;;;;;;;4.05;1.50;;;8.50;99.90;;;;;;10521915;28;20809;-69
2022/01/09 14:43:23;;;;;;;5.63;1.60;;;8.50;99.90;;;;;;10511999;28;20038;-69
2022/01/09 14:48:27;;;;;;;6.80;2.00;;;8.50;99.90;;;;;;10531661;28;20051;-68
2022/01/09 14:53:28;;;;;;;7.32;1.98;;;8.40;99.90;;;;;;10523635;28;20490;-67
2022/01/09 14:58:28;;;;;;;6.00;1.85;;;8.40;99.90;;;;;;10496251;28;20127;-63
2022/01/09 15:03:29;;;;;;;4.05;1.63;;;8.30;99.90;;;;;;10526495;28;20016;-65
2022/01/09 15:08:30;;;;;;;5.95;1.50;;;8.30;99.90;;;;;;10518670;28;20032;-66
2022/01/09 15:13:33;;;;;;;5.47;2.00;;;8.30;99.90;;;;;;10517616;28;20073;-65
2022/01/09 15:18:34;;;;;;;3.55;1.50;;;8.30;99.90;;;;;;10537403;28;20048;-65
2022/01/09 15:23:35;;;;;;;5.18;1.80;;;8.30;99.90;;;;;;10497929;28;20020;-67
2022/01/09 15:28:36;;;;;;;5.07;1.60;;;8.20;99.90;;;;;;10530116;28;20040;-65
2022/01/09 15:33:37;;;;;;;4.60;1.90;;;8.20;99.90;;;;;;10530102;28;20032;-69
2022/01/09 15:38:37;;;;;;;5.38;1.48;;;8.30;99.90;;;;;;10529052;28;20401;-71
2022/01/09 15:43:40;;;;;;;6.80;1.70;;;8.20;99.90;;;;;;10509756;28;20111;-65
2022/01/09 15:48:42;;;;;;;6.53;1.58;;;8.20;99.90;;;;;;10529993;28;20070;-67
2022/01/09 15:53:44;;;;;;;7.82;1.73;;;8.10;99.90;;;;;;10528502;28;20107;-67
2022/01/09 15:58:45;;;;;;;6.25;1.80;;;8.10;99.90;;;;;;10528650;28;20131;-67
2022/01/09 16:03:45;;;;;;;3.53;1.90;;;8.10;99.90;;;;;;10528568;28;20114;-66
2022/01/09 16:08:47;;;;;;;7.05;2.17;;;8.10;99.90;;;;;;10537495;28;20321;-66
2022/01/09 16:13:48;;;;;;;6.63;1.77;;;8.10;99.90;;;;;;10527957;28;20036;-66
2022/01/09 16:18:49;;;;;;;9.32;1.90;;;8.10;99.90;;;;;;10534465;28;20055;-65
2022/01/09 16:23:50;;;;;;;7.47;1.92;;;8.10;99.90;;;;;;10519559;28;20030;-67
2022/01/09 16:28:52;;;;;;;6.68;1.95;;;8.00;99.90;;;;;;10527239;28;20028;-67
2022/01/09 16:33:53;;;;;;;6.05;2.33;;;8.00;99.90;;;;;;10505368;28;20219;-67
2022/01/09 16:38:53;;;;;;;7.72;2.10;;;8.00;99.90;;;;;;10528341;28;20035;-67
2022/01/09 16:43:54;;;;;;;8.02;2.13;;;8.00;99.90;;;;;;10490259;28;20078;-65
2022/01/09 16:48:56;;;;;;;9.20;2.22;;;8.10;99.90;;;;;;10526215;28;20031;-65
2022/01/09 16:53:57;;;;;;;7.30;1.95;;;8.20;99.90;;;;;;10526681;28;20016;-66
2022/01/09 16:58:59;;;;;;;9.98;2.20;;;8.20;99.90;;;;;;10526737;28;20386;-64
2022/01/09 17:04:00;;;;;;;6.38;1.98;;;8.20;99.90;;;;;;10511580;28;20091;-67
2022/01/09 17:09:01;;;;;;;8.63;2.15;;;8.20;99.90;;;;;;10517115;28;20055;-68
2022/01/09 17:14:02;;;;;;;9.30;2.13;;;8.20;99.90;;;;;;10491592;28;20070;-63
2022/01/09 17:19:04;;;;;;;9.23;2.05;;;8.10;99.90;;;;;;10496383;28;20494;-66
2022/01/09 17:24:04;;;;;;;7.35;2.38;;;8.10;99.90;;;;;;10492062;28;20032;-64
2022/01/09 17:29:07;;;;;;;6.05;2.25;;;8.20;99.90;;;;;;10498962;28;20490;-66
2022/01/09 17:34:08;;;;;;;4.85;2.28;;;8.10;99.90;;;;;;10489918;28;20086;-65
2022/01/09 17:39:09;;;;;;;5.88;2.20;;;8.20;99.90;;;;;;10517523;28;20016;-65
2022/01/09 17:44:10;;;;;;;11.52;2.88;;;8.10;99.90;;;;;;10509977;28;20491;-66
2022/01/09 17:49:13;;;;;;;4.53;2.13;;;8.10;99.90;;;;;;10525770;28;20028;-65
2022/01/09 17:54:14;;;;;;;5.70;2.50;;;8.70;99.90;;;;;;10528109;28;20036;-65
2022/01/09 17:59:15;;;;;;;11.40;2.75;;;8.20;99.90;;;;;;10527907;28;20054;-66
2022/01/09 18:04:15;;;;;;;7.72;2.80;;;8.10;99.90;;;;;;10496257;28;20312;-64
2022/01/09 18:09:16;;;;;;;5.55;2.10;;;8.10;99.90;;;;;;10512929;28;20128;-64
2022/01/09 18:14:19;;;;;;;13.15;3.25;;;8.10;99.90;;;;;;10489260;28;20116;-64
2022/01/09 18:19:23;;;;;;;5.57;3.20;;;8.10;99.90;;;;;;10503974;28;20112;-65
2022/01/09 18:24:27;;;;;;;9.05;3.10;;;8.20;99.90;;;;;;10518759;28;20437;-65
2022/01/09 18:29:28;;;;;;;9.85;2.60;;;8.10;99.90;;;;;;10516703;28;20115;-65
2022/01/09 18:34:29;;;;;;;6.97;3.00;;;9.00;99.90;;;;;;10520266;28;20032;-65
2022/01/09 18:39:32;;;;;;;9.05;2.92;;;9.30;99.90;;;;;;10529207;28;20078;-65
2022/01/09 18:44:33;;;;;;;8.85;2.90;;;9.10;99.90;;;;;;10532146;28;20028;-65
2022/01/09 18:49:34;;;;;;;9.43;3.45;;;8.90;99.90;;;;;;10532403;28;20501;-67
2022/01/09 18:54:36;;;;;;;7.88;3.10;;;8.70;99.90;;;;;;10531724;28;20019;-66
2022/01/09 18:59:36;;;;;;;5.97;2.90;;;8.60;99.90;;;;;;10532667;28;20035;-67
2022/01/09 19:04:40;;;;;;;6.90;3.25;;;8.50;99.90;;;;;;10503719;28;20028;-65
2022/01/09 19:09:41;;;;;;;9.77;2.78;;;9.30;99.90;;;;;;10506071;28;20043;-66
2022/01/09 19:14:42;;;;;;;10.35;2.85;;;8.40;99.90;;;;;;10510308;28;20033;-63
2022/01/09 19:19:43;;;;;;;10.90;3.53;;;8.30;99.90;;;;;;10510017;28;20036;-65
2022/01/09 19:24:43;;;;;;;9.38;2.78;;;8.30;99.90;;;;;;10506852;28;20028;-67
2022/01/09 19:29:45;;;;;;;10.85;2.80;;;8.20;99.90;;;;;;10515936;28;20678;-66
2022/01/09 19:34:46;;;;;;;4.72;2.28;;;8.20;99.90;;;;;;10530722;28;20115;-68
2022/01/09 19:39:47;;;;;;;8.23;2.38;;;8.20;99.90;;;;;;10525841;28;20116;-67
2022/01/09 19:44:48;;;;;;;8.68;2.47;;;8.10;99.90;;;;;;10524812;28;20024;-65
2022/01/09 19:49:48;;;;;;;8.40;2.45;;;8.10;99.90;;;;;;10517688;28;20043;-67
2022/01/09 19:54:49;;;;;;;8.43;2.80;;;8.10;99.90;;;;;;10515136;28;20073;-66
2022/01/09 19:59:50;;;;;;;5.75;2.50;;;8.10;99.90;;;;;;10522522;28;20085;-65
2022/01/09 20:04:51;;;;;;;3.95;1.90;;;8.00;99.90;;;;;;10522631;28;20026;-65
2022/01/09 20:09:52;;;;;;;8.38;2.70;;;8.00;99.90;;;;;;10516805;28;20020;-67
2022/01/09 20:14:53;;;;;;;6.03;2.55;;;8.00;99.90;;;;;;10510485;28;20041;-65
2022/01/09 20:19:54;;;;;;;5.95;2.47;;;8.00;99.90;;;;;;10520176;28;20024;-67
2022/01/09 20:24:54;;;;;;;7.22;2.33;;;9.00;99.90;;;;;;10519010;28;20492;-65
2022/01/09 20:29:55;;;;;;;12.65;2.47;;;8.00;99.90;;;;;;10517034;28;20032;-67
2022/01/09 20:34:56;;;;;;;6.57;2.40;;;8.00;99.90;;;;;;10511174;28;20027;-66
2022/01/09 20:39:57;;;;;;;7.20;2.53;;;7.90;99.90;;;;;;10509311;28;20018;-66
2022/01/09 20:45:00;;;;;;;7.97;2.65;;;8.00;99.90;;;;;;10515885;28;20474;-67
2022/01/09 20:50:03;;;;;;;6.18;2.45;;;7.90;99.90;;;;;;10503719;28;20089;-65
2022/01/09 20:55:05;;;;;;;9.27;2.38;;;8.00;99.90;;;;;;10485800;28;20024;-67
2022/01/09 21:00:10;;;;;;;6.65;2.42;;;7.90;99.90;;;;;;10511775;28;20047;-68
2022/01/09 21:05:11;;;;;;;6.88;2.78;;;7.90;99.90;;;;;;10520744;28;20050;-66
2022/01/09 21:10:12;;;;;;;7.15;3.25;;;7.90;99.90;;;;;;10495414;28;20028;-64
2022/01/09 21:15:12;;;;;;;6.35;3.30;;;7.90;99.90;;;;;;10501737;28;20057;-67
2022/01/09 21:20:13;;;;;;;10.10;2.85;;;7.90;99.90;;;;;;10473909;28;20029;-66
2022/01/09 21:25:14;;;;;;;7.75;2.60;;;7.90;99.90;;;;;;10437180;28;20029;-67
2022/01/09 21:30:15;;;;;;;5.00;2.15;;;7.80;99.90;;;;;;10479572;28;20410;-63
2022/01/09 21:35:16;;;;;;;9.10;2.80;;;7.80;99.90;;;;;;10460173;28;20467;-67
2022/01/09 21:40:18;;;;;;;4.47;1.95;;;7.80;99.90;;;;;;10463963;28;20025;-67
2022/01/09 21:45:19;;;;;;;7.32;2.28;;;7.80;99.90;;;;;;10472585;28;20017;-64
2022/01/09 21:50:20;;;;;;;7.50;2.33;;;8.00;99.90;;;;;;10469163;28;20120;-66
2022/01/09 21:55:20;;;;;;;7.78;2.30;;;7.80;99.90;;;;;;10457551;28;20033;-67
2022/01/09 22:00:22;;;;;;;10.38;2.40;;;7.80;99.90;;;;;;10484272;28;20032;-67
2022/01/09 22:05:22;;;;;;;5.50;2.33;;;7.80;99.90;;;;;;10488370;28;20044;-64
2022/01/09 22:10:26;;;;;;;8.20;2.50;;;7.80;99.90;;;;;;10477042;28;20519;-68
2022/01/09 22:15:27;;;;;;;7.28;2.38;;;7.80;99.90;;;;;;10491256;28;20517;-68
2022/01/09 22:20:27;;;;;;;9.48;3.38;;;7.70;99.90;;;;;;10524474;28;20028;-67
2022/01/09 22:25:30;;;;;;;7.70;2.22;;;7.70;99.90;;;;;;10515192;28;20503;-66
2022/01/09 22:30:30;;;;;;;4.88;2.40;;;7.70;99.90;;;;;;10508740;28;20072;-66
2022/01/09 22:35:32;;;;;;;4.35;2.08;;;7.70;99.90;;;;;;10513482;28;20537;-68
2022/01/09 22:40:32;;;;;;;9.68;2.83;;;7.70;99.90;;;;;;10516631;28;20071;-67
2022/01/09 22:45:35;;;;;;;7.10;2.33;;;7.90;99.90;;;;;;10524617;28;20055;-66
2022/01/09 22:50:36;;;;;;;5.75;2.47;;;7.60;99.90;;;;;;10506800;28;20587;-67
2022/01/09 22:55:37;;;;;;;6.25;2.65;;;7.60;99.90;;;;;;10519432;28;20462;-66
2022/01/09 23:00:47;;;;;;;6.10;2.53;;;7.60;99.90;;;;;;10522286;28;20463;-66
2022/01/09 23:05:48;;;;;;;7.47;2.53;;;7.60;99.90;;;;;;10527686;28;20019;-65
2022/01/09 23:10:51;;;;;;;6.82;2.78;;;7.60;99.90;;;;;;10535926;28;20029;-68
2022/01/09 23:15:52;;;;;;;6.07;2.78;;;7.60;99.90;;;;;;10528010;28;20308;-64
2022/01/09 23:20:52;;;;;;;8.55;2.90;;;7.50;99.90;;;;;;10524881;28;20373;-68
2022/01/09 23:25:56;;;;;;;5.57;2.72;;;7.50;99.90;;;;;;10504625;28;20032;-67
2022/01/09 23:30:57;;;;;;;7.03;2.75;;;7.50;99.90;;;;;;10520403;28;20123;-63
2022/01/09 23:35:58;;;;;;;8.30;2.88;;;7.50;99.90;;;;;;10520688;28;20031;-68
2022/01/09 23:40:59;;;;;;;8.38;3.08;;;7.60;99.90;;;;;;10525261;28;20555;-67
2022/01/09 23:46:00;;;;;;;7.60;2.70;;;7.50;99.90;;;;;;10520428;28;20023;-68
2022/01/09 23:51:00;;;;;;;9.60;3.70;;;7.40;99.90;;;;;;10525796;28;20126;-67
2022/01/09 23:56:01;;;;;;;8.25;3.70;;;7.40;99.90;;;;;;10530822;28;20024;-68
